Terminal Aerodrome Forecast
Issued by NWS Atlanta, GA

Home | Current Version | Previous Version | Text Only | Print | Product List | Glossary On
Versions: 1 2 3 4 5 6 7 8 9 10 11 12
392
FTUS42 KFFC 210520
TAFMCN
TAF
KMCN 210520Z 2106/2206 00000KT 6SM BR FEW250
      TEMPO 2109/2113 3SM BR
     FM211300 VRB03KT P6SM SCT250
     FM211700 09005KT P6SM SCT045 SCT250
     FM212000 10005KT P6SM VCSH BKN060
     FM220000 VRB03KT P6SM SCT060 SCT150=

USA.gov is the U.S. government's official web portal to all federal, state and local government web resources and services.